sensor_id;sensor_type;location;lat;lon;timestamp;P1;durP1;ratioP1;P2;durP2;ratioP2
11054;SDS011;5580;50.106;8.702;2023-04-24T00:01:38;4.23;;;2.67;;
11054;SDS011;5580;50.106;8.702;2023-04-24T00:04:04;5.80;;;2.63;;
11054;SDS011;5580;50.106;8.702;2023-04-24T00:06:32;5.60;;;2.60;;
11054;SDS011;5580;50.106;8.702;2023-04-24T00:09:01;5.47;;;2.70;;
11054;SDS011;5580;50.106;8.702;2023-04-24T00:11:28;2.97;;;2.70;;
11054;SDS011;5580;50.106;8.702;2023-04-24T00:13:54;3.03;;;2.07;;
11054;SDS011;5580;50.106;8.702;2023-04-24T00:16:20;7.37;;;2.90;;
11054;SDS011;5580;50.106;8.702;2023-04-24T00:18:46;4.07;;;2.57;;
11054;SDS011;5580;50.106;8.702;2023-04-24T00:21:12;4.10;;;2.73;;
11054;SDS011;5580;50.106;8.702;2023-04-24T00:23:38;5.13;;;2.90;;
11054;SDS011;5580;50.106;8.702;2023-04-24T00:26:04;3.50;;;3.00;;
11054;SDS011;5580;50.106;8.702;2023-04-24T00:28:30;5.23;;;2.80;;
11054;SDS011;5580;50.106;8.702;2023-04-24T00:30:55;6.23;;;2.87;;
11054;SDS011;5580;50.106;8.702;2023-04-24T00:33:21;5.03;;;2.50;;
11054;SDS011;5580;50.106;8.702;2023-04-24T00:35:46;3.07;;;2.73;;
11054;SDS011;5580;50.106;8.702;2023-04-24T00:38:12;6.70;;;3.00;;
11054;SDS011;5580;50.106;8.702;2023-04-24T00:40:37;3.13;;;2.77;;
11054;SDS011;5580;50.106;8.702;2023-04-24T00:43:03;5.27;;;3.10;;
11054;SDS011;5580;50.106;8.702;2023-04-24T00:45:29;4.17;;;2.90;;
11054;SDS011;5580;50.106;8.702;2023-04-24T00:47:56;3.13;;;2.60;;
11054;SDS011;5580;50.106;8.702;2023-04-24T00:50:21;4.20;;;2.73;;
11054;SDS011;5580;50.106;8.702;2023-04-24T00:52:48;3.60;;;2.70;;
11054;SDS011;5580;50.106;8.702;2023-04-24T00:55:14;3.07;;;2.73;;
11054;SDS011;5580;50.106;8.702;2023-04-24T00:57:40;6.70;;;3.20;;
11054;SDS011;5580;50.106;8.702;2023-04-24T01:00:06;4.63;;;2.70;;
11054;SDS011;5580;50.106;8.702;2023-04-24T01:02:37;5.23;;;2.63;;
11054;SDS011;5580;50.106;8.702;2023-04-24T01:05:06;5.73;;;2.37;;
11054;SDS011;5580;50.106;8.702;2023-04-24T01:07:33;2.50;;;2.17;;
11054;SDS011;5580;50.106;8.702;2023-04-24T01:09:59;3.80;;;2.37;;
11054;SDS011;5580;50.106;8.702;2023-04-24T01:12:25;4.13;;;2.30;;
11054;SDS011;5580;50.106;8.702;2023-04-24T01:14:50;6.00;;;2.50;;
11054;SDS011;5580;50.106;8.702;2023-04-24T01:17:16;3.73;;;2.50;;
11054;SDS011;5580;50.106;8.702;2023-04-24T01:19:41;4.87;;;2.50;;
11054;SDS011;5580;50.106;8.702;2023-04-24T01:22:15;2.50;;;2.30;;
11054;SDS011;5580;50.106;8.702;2023-04-24T01:24:42;2.73;;;2.10;;
11054;SDS011;5580;50.106;8.702;2023-04-24T01:27:09;4.77;;;2.30;;
11054;SDS011;5580;50.106;8.702;2023-04-24T01:29:36;3.70;;;2.30;;
11054;SDS011;5580;50.106;8.702;2023-04-24T01:32:03;3.03;;;2.43;;
11054;SDS011;5580;50.106;8.702;2023-04-24T01:34:29;4.60;;;2.43;;
11054;SDS011;5580;50.106;8.702;2023-04-24T01:36:55;3.80;;;2.57;;
11054;SDS011;5580;50.106;8.702;2023-04-24T01:39:21;3.63;;;2.50;;
11054;SDS011;5580;50.106;8.702;2023-04-24T01:41:48;3.00;;;2.37;;
11054;SDS011;5580;50.106;8.702;2023-04-24T01:44:15;7.60;;;2.50;;
11054;SDS011;5580;50.106;8.702;2023-04-24T01:46:41;4.17;;;2.60;;
11054;SDS011;5580;50.106;8.702;2023-04-24T01:49:06;4.70;;;2.50;;
11054;SDS011;5580;50.106;8.702;2023-04-24T01:51:32;2.43;;;2.30;;
11054;SDS011;5580;50.106;8.702;2023-04-24T01:53:57;4.53;;;2.63;;
11054;SDS011;5580;50.106;8.702;2023-04-24T01:56:23;4.50;;;2.60;;
11054;SDS011;5580;50.106;8.702;2023-04-24T01:58:50;4.03;;;2.20;;
11054;SDS011;5580;50.106;8.702;2023-04-24T02:01:23;3.37;;;2.47;;
11054;SDS011;5580;50.106;8.702;2023-04-24T02:03:49;7.60;;;2.83;;
11054;SDS011;5580;50.106;8.702;2023-04-24T02:06:14;4.67;;;2.53;;
11054;SDS011;5580;50.106;8.702;2023-04-24T02:08:40;5.43;;;2.50;;
11054;SDS011;5580;50.106;8.702;2023-04-24T02:11:05;2.37;;;2.17;;
11054;SDS011;5580;50.106;8.702;2023-04-24T02:13:31;4.33;;;2.60;;
11054;SDS011;5580;50.106;8.702;2023-04-24T02:15:58;6.27;;;2.50;;
11054;SDS011;5580;50.106;8.702;2023-04-24T02:18:23;3.33;;;2.30;;
11054;SDS011;5580;50.106;8.702;2023-04-24T02:20:49;3.87;;;2.23;;
11054;SDS011;5580;50.106;8.702;2023-04-24T02:23:15;3.17;;;2.00;;
11054;SDS011;5580;50.106;8.702;2023-04-24T02:25:40;6.43;;;2.80;;
11054;SDS011;5580;50.106;8.702;2023-04-24T02:28:06;5.63;;;2.80;;
11054;SDS011;5580;50.106;8.702;2023-04-24T02:30:31;3.17;;;2.40;;
11054;SDS011;5580;50.106;8.702;2023-04-24T02:32:57;3.97;;;2.73;;
11054;SDS011;5580;50.106;8.702;2023-04-24T02:35:23;3.93;;;2.60;;
11054;SDS011;5580;50.106;8.702;2023-04-24T02:37:48;5.17;;;2.43;;
11054;SDS011;5580;50.106;8.702;2023-04-24T02:40:14;5.10;;;2.17;;
11054;SDS011;5580;50.106;8.702;2023-04-24T02:42:39;4.70;;;2.63;;
11054;SDS011;5580;50.106;8.702;2023-04-24T02:45:05;3.87;;;2.30;;
11054;SDS011;5580;50.106;8.702;2023-04-24T02:47:31;3.13;;;2.30;;
11054;SDS011;5580;50.106;8.702;2023-04-24T02:49:57;8.50;;;3.03;;
11054;SDS011;5580;50.106;8.702;2023-04-24T02:52:22;4.53;;;2.60;;
11054;SDS011;5580;50.106;8.702;2023-04-24T02:54:48;7.87;;;2.67;;
11054;SDS011;5580;50.106;8.702;2023-04-24T02:57:14;5.37;;;2.40;;
11054;SDS011;5580;50.106;8.702;2023-04-24T02:59:40;5.30;;;2.27;;
11054;SDS011;5580;50.106;8.702;2023-04-24T03:02:05;4.07;;;2.40;;
11054;SDS011;5580;50.106;8.702;2023-04-24T03:04:31;4.43;;;2.70;;
11054;SDS011;5580;50.106;8.702;2023-04-24T03:06:56;4.90;;;2.20;;
11054;SDS011;5580;50.106;8.702;2023-04-24T03:09:22;2.53;;;2.40;;
11054;SDS011;5580;50.106;8.702;2023-04-24T03:11:49;3.97;;;2.40;;
11054;SDS011;5580;50.106;8.702;2023-04-24T03:14:14;3.33;;;2.43;;
11054;SDS011;5580;50.106;8.702;2023-04-24T03:16:40;5.33;;;2.60;;
11054;SDS011;5580;50.106;8.702;2023-04-24T03:19:06;4.77;;;2.50;;
11054;SDS011;5580;50.106;8.702;2023-04-24T03:21:32;6.27;;;2.67;;
11054;SDS011;5580;50.106;8.702;2023-04-24T03:23:57;5.97;;;2.50;;
11054;SDS011;5580;50.106;8.702;2023-04-24T03:26:23;3.10;;;2.43;;
11054;SDS011;5580;50.106;8.702;2023-04-24T03:28:48;3.73;;;2.40;;
11054;SDS011;5580;50.106;8.702;2023-04-24T03:31:14;4.70;;;2.70;;
11054;SDS011;5580;50.106;8.702;2023-04-24T03:33:40;4.57;;;2.60;;
11054;SDS011;5580;50.106;8.702;2023-04-24T03:36:06;3.27;;;2.47;;
11054;SDS011;5580;50.106;8.702;2023-04-24T03:38:31;5.83;;;2.50;;
11054;SDS011;5580;50.106;8.702;2023-04-24T03:40:57;2.60;;;2.40;;
11054;SDS011;5580;50.106;8.702;2023-04-24T03:43:23;6.27;;;2.70;;
11054;SDS011;5580;50.106;8.702;2023-04-24T03:45:48;3.60;;;2.77;;
11054;SDS011;5580;50.106;8.702;2023-04-24T03:48:14;4.97;;;2.70;;
11054;SDS011;5580;50.106;8.702;2023-04-24T03:50:39;5.30;;;3.23;;
11054;SDS011;5580;50.106;8.702;2023-04-24T03:53:05;4.90;;;2.90;;
11054;SDS011;5580;50.106;8.702;2023-04-24T03:55:31;3.80;;;2.30;;
11054;SDS011;5580;50.106;8.702;2023-04-24T03:57:56;4.20;;;2.47;;
11054;SDS011;5580;50.106;8.702;2023-04-24T04:00:22;3.93;;;2.57;;
11054;SDS011;5580;50.106;8.702;2023-04-24T04:02:48;4.47;;;2.80;;
11054;SDS011;5580;50.106;8.702;2023-04-24T04:05:14;3.07;;;2.77;;
11054;SDS011;5580;50.106;8.702;2023-04-24T04:07:39;2.50;;;2.30;;
11054;SDS011;5580;50.106;8.702;2023-04-24T04:10:05;7.13;;;3.00;;
11054;SDS011;5580;50.106;8.702;2023-04-24T04:12:32;3.27;;;2.20;;
11054;SDS011;5580;50.106;8.702;2023-04-24T04:14:57;5.77;;;3.00;;
11054;SDS011;5580;50.106;8.702;2023-04-24T04:17:23;5.40;;;2.57;;
11054;SDS011;5580;50.106;8.702;2023-04-24T04:19:48;5.30;;;2.90;;
11054;SDS011;5580;50.106;8.702;2023-04-24T04:22:14;3.17;;;2.50;;
11054;SDS011;5580;50.106;8.702;2023-04-24T04:24:40;5.10;;;2.80;;
11054;SDS011;5580;50.106;8.702;2023-04-24T04:27:05;4.97;;;2.57;;
11054;SDS011;5580;50.106;8.702;2023-04-24T04:29:31;4.23;;;2.63;;
11054;SDS011;5580;50.106;8.702;2023-04-24T04:31:57;3.67;;;3.07;;
11054;SDS011;5580;50.106;8.702;2023-04-24T04:34:23;5.73;;;2.50;;
11054;SDS011;5580;50.106;8.702;2023-04-24T04:36:49;3.37;;;2.60;;
11054;SDS011;5580;50.106;8.702;2023-04-24T04:39:15;3.03;;;2.60;;
11054;SDS011;5580;50.106;8.702;2023-04-24T04:41:41;3.83;;;3.00;;
11054;SDS011;5580;50.106;8.702;2023-04-24T04:44:07;3.10;;;2.80;;
11054;SDS011;5580;50.106;8.702;2023-04-24T04:46:33;3.67;;;2.70;;
11054;SDS011;5580;50.106;8.702;2023-04-24T04:49:02;2.93;;;2.60;;
11054;SDS011;5580;50.106;8.702;2023-04-24T04:51:28;2.87;;;2.63;;
11054;SDS011;5580;50.106;8.702;2023-04-24T04:53:54;4.60;;;3.07;;
11054;SDS011;5580;50.106;8.702;2023-04-24T04:56:19;3.17;;;2.83;;
11054;SDS011;5580;50.106;8.702;2023-04-24T04:58:45;3.80;;;2.90;;
11054;SDS011;5580;50.106;8.702;2023-04-24T05:01:11;4.73;;;3.07;;
11054;SDS011;5580;50.106;8.702;2023-04-24T05:03:36;3.17;;;2.93;;
11054;SDS011;5580;50.106;8.702;2023-04-24T05:06:02;3.20;;;2.90;;
11054;SDS011;5580;50.106;8.702;2023-04-24T05:08:28;3.10;;;2.90;;
11054;SDS011;5580;50.106;8.702;2023-04-24T05:10:53;4.00;;;2.97;;
11054;SDS011;5580;50.106;8.702;2023-04-24T05:13:20;3.20;;;2.83;;
11054;SDS011;5580;50.106;8.702;2023-04-24T05:15:45;3.83;;;3.00;;
11054;SDS011;5580;50.106;8.702;2023-04-24T05:18:11;5.37;;;3.30;;
11054;SDS011;5580;50.106;8.702;2023-04-24T05:20:36;5.63;;;3.23;;
11054;SDS011;5580;50.106;8.702;2023-04-24T05:23:02;3.07;;;2.77;;
11054;SDS011;5580;50.106;8.702;2023-04-24T05:25:28;4.70;;;3.23;;
11054;SDS011;5580;50.106;8.702;2023-04-24T05:27:53;4.10;;;3.20;;
11054;SDS011;5580;50.106;8.702;2023-04-24T05:30:19;5.83;;;3.60;;
11054;SDS011;5580;50.106;8.702;2023-04-24T05:32:45;3.73;;;3.40;;
11054;SDS011;5580;50.106;8.702;2023-04-24T05:35:10;5.30;;;3.20;;
11054;SDS011;5580;50.106;8.702;2023-04-24T05:37:36;4.20;;;3.80;;
11054;SDS011;5580;50.106;8.702;2023-04-24T05:40:02;5.63;;;3.90;;
11054;SDS011;5580;50.106;8.702;2023-04-24T05:42:30;4.83;;;3.70;;
11054;SDS011;5580;50.106;8.702;2023-04-24T05:44:56;5.27;;;4.20;;
11054;SDS011;5580;50.106;8.702;2023-04-24T05:47:21;4.40;;;3.80;;
11054;SDS011;5580;50.106;8.702;2023-04-24T05:49:47;6.93;;;4.20;;
11054;SDS011;5580;50.106;8.702;2023-04-24T05:52:13;4.60;;;4.00;;
11054;SDS011;5580;50.106;8.702;2023-04-24T05:54:39;6.33;;;4.43;;
11054;SDS011;5580;50.106;8.702;2023-04-24T05:57:04;5.40;;;4.40;;
11054;SDS011;5580;50.106;8.702;2023-04-24T05:59:33;5.53;;;3.97;;
11054;SDS011;5580;50.106;8.702;2023-04-24T06:02:00;6.50;;;4.27;;
11054;SDS011;5580;50.106;8.702;2023-04-24T06:04:25;5.10;;;3.93;;
11054;SDS011;5580;50.106;8.702;2023-04-24T06:06:51;4.40;;;3.90;;
11054;SDS011;5580;50.106;8.702;2023-04-24T06:09:20;6.03;;;4.07;;
11054;SDS011;5580;50.106;8.702;2023-04-24T06:11:47;5.60;;;4.00;;
11054;SDS011;5580;50.106;8.702;2023-04-24T06:14:12;4.13;;;3.73;;
11054;SDS011;5580;50.106;8.702;2023-04-24T06:16:39;5.07;;;3.60;;
11054;SDS011;5580;50.106;8.702;2023-04-24T06:19:07;4.07;;;3.70;;
11054;SDS011;5580;50.106;8.702;2023-04-24T06:21:32;4.10;;;3.70;;
11054;SDS011;5580;50.106;8.702;2023-04-24T06:23:58;6.47;;;3.73;;
11054;SDS011;5580;50.106;8.702;2023-04-24T06:26:23;5.63;;;4.20;;
11054;SDS011;5580;50.106;8.702;2023-04-24T06:28:51;5.43;;;3.70;;
11054;SDS011;5580;50.106;8.702;2023-04-24T06:31:18;3.87;;;3.57;;
11054;SDS011;5580;50.106;8.702;2023-04-24T06:33:44;4.97;;;4.20;;
11054;SDS011;5580;50.106;8.702;2023-04-24T06:36:10;7.73;;;4.37;;
11054;SDS011;5580;50.106;8.702;2023-04-24T06:38:36;7.03;;;4.33;;
11054;SDS011;5580;50.106;8.702;2023-04-24T06:41:02;5.40;;;4.17;;
11054;SDS011;5580;50.106;8.702;2023-04-24T06:43:29;8.43;;;4.83;;
11054;SDS011;5580;50.106;8.702;2023-04-24T06:45:56;7.90;;;4.80;;
11054;SDS011;5580;50.106;8.702;2023-04-24T06:48:23;6.63;;;4.33;;
11054;SDS011;5580;50.106;8.702;2023-04-24T06:50:49;5.40;;;4.20;;
11054;SDS011;5580;50.106;8.702;2023-04-24T06:53:14;6.43;;;4.57;;
11054;SDS011;5580;50.106;8.702;2023-04-24T06:55:40;6.10;;;4.40;;
11054;SDS011;5580;50.106;8.702;2023-04-24T06:58:06;6.20;;;4.47;;
11054;SDS011;5580;50.106;8.702;2023-04-24T07:00:32;6.27;;;4.73;;
11054;SDS011;5580;50.106;8.702;2023-04-24T07:02:58;8.63;;;4.53;;
11054;SDS011;5580;50.106;8.702;2023-04-24T07:05:23;8.27;;;4.50;;
11054;SDS011;5580;50.106;8.702;2023-04-24T07:07:49;7.00;;;4.90;;
11054;SDS011;5580;50.106;8.702;2023-04-24T07:10:16;5.87;;;4.33;;
11054;SDS011;5580;50.106;8.702;2023-04-24T07:12:43;5.47;;;4.30;;
11054;SDS011;5580;50.106;8.702;2023-04-24T07:15:08;6.77;;;4.60;;
11054;SDS011;5580;50.106;8.702;2023-04-24T07:17:35;7.87;;;4.70;;
11054;SDS011;5580;50.106;8.702;2023-04-24T07:20:03;8.37;;;4.87;;
11054;SDS011;5580;50.106;8.702;2023-04-24T07:22:29;6.03;;;4.73;;
11054;SDS011;5580;50.106;8.702;2023-04-24T07:24:55;5.60;;;4.30;;
11054;SDS011;5580;50.106;8.702;2023-04-24T07:27:20;8.00;;;5.10;;
11054;SDS011;5580;50.106;8.702;2023-04-24T07:29:46;9.53;;;4.70;;
11054;SDS011;5580;50.106;8.702;2023-04-24T07:32:12;6.57;;;4.80;;
11054;SDS011;5580;50.106;8.702;2023-04-24T07:34:37;8.07;;;4.60;;
11054;SDS011;5580;50.106;8.702;2023-04-24T07:37:03;6.67;;;4.70;;
11054;SDS011;5580;50.106;8.702;2023-04-24T07:39:29;6.23;;;4.57;;
11054;SDS011;5580;50.106;8.702;2023-04-24T07:41:54;6.97;;;4.60;;
11054;SDS011;5580;50.106;8.702;2023-04-24T07:44:20;7.30;;;4.47;;
11054;SDS011;5580;50.106;8.702;2023-04-24T07:46:45;4.67;;;4.00;;
11054;SDS011;5580;50.106;8.702;2023-04-24T07:49:11;6.20;;;4.70;;
11054;SDS011;5580;50.106;8.702;2023-04-24T07:51:37;7.00;;;4.40;;
11054;SDS011;5580;50.106;8.702;2023-04-24T07:54:04;5.13;;;4.10;;
11054;SDS011;5580;50.106;8.702;2023-04-24T07:56:31;5.87;;;3.87;;
11054;SDS011;5580;50.106;8.702;2023-04-24T07:58:57;4.93;;;4.13;;
11054;SDS011;5580;50.106;8.702;2023-04-24T08:01:22;4.93;;;4.10;;
11054;SDS011;5580;50.106;8.702;2023-04-24T08:03:48;6.40;;;4.43;;
11054;SDS011;5580;50.106;8.702;2023-04-24T08:06:13;8.17;;;4.90;;
11054;SDS011;5580;50.106;8.702;2023-04-24T08:08:39;7.93;;;4.80;;
11054;SDS011;5580;50.106;8.702;2023-04-24T08:11:04;8.80;;;4.87;;
11054;SDS011;5580;50.106;8.702;2023-04-24T08:13:30;7.50;;;4.90;;
11054;SDS011;5580;50.106;8.702;2023-04-24T08:15:56;6.83;;;4.90;;
11054;SDS011;5580;50.106;8.702;2023-04-24T08:18:22;8.50;;;4.87;;
11054;SDS011;5580;50.106;8.702;2023-04-24T08:20:48;7.23;;;4.60;;
11054;SDS011;5580;50.106;8.702;2023-04-24T08:23:13;5.97;;;4.50;;
11054;SDS011;5580;50.106;8.702;2023-04-24T08:25:39;7.27;;;4.70;;
11054;SDS011;5580;50.106;8.702;2023-04-24T08:28:05;6.17;;;4.67;;
11054;SDS011;5580;50.106;8.702;2023-04-24T08:30:31;8.77;;;4.93;;
11054;SDS011;5580;50.106;8.702;2023-04-24T08:32:57;5.87;;;4.30;;
11054;SDS011;5580;50.106;8.702;2023-04-24T08:35:23;6.53;;;4.43;;
11054;SDS011;5580;50.106;8.702;2023-04-24T08:37:48;6.80;;;4.47;;
11054;SDS011;5580;50.106;8.702;2023-04-24T08:40:15;6.23;;;4.60;;
11054;SDS011;5580;50.106;8.702;2023-04-24T08:42:44;8.17;;;4.20;;
11054;SDS011;5580;50.106;8.702;2023-04-24T08:45:11;6.20;;;4.50;;
11054;SDS011;5580;50.106;8.702;2023-04-24T08:47:40;6.27;;;4.47;;
11054;SDS011;5580;50.106;8.702;2023-04-24T08:50:07;8.53;;;4.80;;
11054;SDS011;5580;50.106;8.702;2023-04-24T08:52:34;5.80;;;4.60;;
11054;SDS011;5580;50.106;8.702;2023-04-24T08:55:00;8.40;;;4.63;;
11054;SDS011;5580;50.106;8.702;2023-04-24T08:57:26;7.60;;;4.70;;
11054;SDS011;5580;50.106;8.702;2023-04-24T08:59:53;5.17;;;4.50;;
11054;SDS011;5580;50.106;8.702;2023-04-24T09:02:19;7.37;;;4.43;;
11054;SDS011;5580;50.106;8.702;2023-04-24T09:04:46;5.17;;;3.90;;
11054;SDS011;5580;50.106;8.702;2023-04-24T09:07:12;8.03;;;4.87;;
11054;SDS011;5580;50.106;8.702;2023-04-24T09:09:41;6.83;;;4.20;;
11054;SDS011;5580;50.106;8.702;2023-04-24T09:12:07;5.47;;;4.47;;
11054;SDS011;5580;50.106;8.702;2023-04-24T09:14:34;7.23;;;4.37;;
11054;SDS011;5580;50.106;8.702;2023-04-24T09:17:03;5.53;;;3.87;;
11054;SDS011;5580;50.106;8.702;2023-04-24T09:19:29;6.03;;;4.33;;
11054;SDS011;5580;50.106;8.702;2023-04-24T09:21:54;5.40;;;3.83;;
11054;SDS011;5580;50.106;8.702;2023-04-24T09:24:21;6.37;;;3.63;;
11054;SDS011;5580;50.106;8.702;2023-04-24T09:26:56;6.00;;;4.20;;
11054;SDS011;5580;50.106;8.702;2023-04-24T09:29:23;5.43;;;4.10;;
11054;SDS011;5580;50.106;8.702;2023-04-24T09:31:50;5.70;;;4.20;;
11054;SDS011;5580;50.106;8.702;2023-04-24T09:34:19;6.03;;;4.17;;
11054;SDS011;5580;50.106;8.702;2023-04-24T09:36:47;5.07;;;4.30;;
11054;SDS011;5580;50.106;8.702;2023-04-24T09:39:13;7.03;;;4.23;;
11054;SDS011;5580;50.106;8.702;2023-04-24T09:41:45;5.10;;;4.17;;
11054;SDS011;5580;50.106;8.702;2023-04-24T09:44:13;6.13;;;4.10;;
11054;SDS011;5580;50.106;8.702;2023-04-24T09:46:44;5.30;;;4.23;;
11054;SDS011;5580;50.106;8.702;2023-04-24T09:49:14;6.00;;;4.17;;
11054;SDS011;5580;50.106;8.702;2023-04-24T09:51:41;5.87;;;4.17;;
11054;SDS011;5580;50.106;8.702;2023-04-24T09:54:14;5.40;;;4.30;;
11054;SDS011;5580;50.106;8.702;2023-04-24T09:56:44;7.03;;;4.10;;
11054;SDS011;5580;50.106;8.702;2023-04-24T09:59:11;4.40;;;4.00;;
11054;SDS011;5580;50.106;8.702;2023-04-24T10:01:37;4.33;;;3.90;;
11054;SDS011;5580;50.106;8.702;2023-04-24T10:04:06;5.97;;;4.00;;
11054;SDS011;5580;50.106;8.702;2023-04-24T10:06:44;4.17;;;3.77;;
11054;SDS011;5580;50.106;8.702;2023-04-24T10:09:10;5.57;;;3.80;;
11054;SDS011;5580;50.106;8.702;2023-04-24T10:11:37;4.40;;;4.00;;
11054;SDS011;5580;50.106;8.702;2023-04-24T10:14:08;5.27;;;3.90;;
11054;SDS011;5580;50.106;8.702;2023-04-24T10:16:35;4.33;;;3.93;;
11054;SDS011;5580;50.106;8.702;2023-04-24T10:19:02;4.00;;;3.67;;
11054;SDS011;5580;50.106;8.702;2023-04-24T10:21:28;4.07;;;3.67;;
11054;SDS011;5580;50.106;8.702;2023-04-24T10:23:55;4.70;;;3.80;;
11054;SDS011;5580;50.106;8.702;2023-04-24T10:26:21;3.73;;;3.43;;
11054;SDS011;5580;50.106;8.702;2023-04-24T10:28:47;3.87;;;3.40;;
11054;SDS011;5580;50.106;8.702;2023-04-24T10:31:13;5.77;;;3.80;;
11054;SDS011;5580;50.106;8.702;2023-04-24T10:33:40;5.93;;;3.97;;
11054;SDS011;5580;50.106;8.702;2023-04-24T10:36:08;4.47;;;3.50;;
11054;SDS011;5580;50.106;8.702;2023-04-24T10:38:35;4.30;;;3.90;;
11054;SDS011;5580;50.106;8.702;2023-04-24T10:41:11;4.10;;;3.70;;
11054;SDS011;5580;50.106;8.702;2023-04-24T10:43:48;4.37;;;3.97;;
11054;SDS011;5580;50.106;8.702;2023-04-24T10:46:29;4.10;;;3.70;;
11054;SDS011;5580;50.106;8.702;2023-04-24T10:48:55;4.17;;;3.50;;
11054;SDS011;5580;50.106;8.702;2023-04-24T10:51:22;4.87;;;3.77;;
11054;SDS011;5580;50.106;8.702;2023-04-24T10:53:51;6.40;;;3.97;;
11054;SDS011;5580;50.106;8.702;2023-04-24T10:56:17;7.23;;;4.00;;
11054;SDS011;5580;50.106;8.702;2023-04-24T10:58:43;6.23;;;4.10;;
11054;SDS011;5580;50.106;8.702;2023-04-24T11:01:23;5.17;;;4.10;;
11054;SDS011;5580;50.106;8.702;2023-04-24T11:03:56;4.17;;;3.70;;
11054;SDS011;5580;50.106;8.702;2023-04-24T11:06:30;5.27;;;3.90;;
11054;SDS011;5580;50.106;8.702;2023-04-24T11:09:07;4.03;;;3.60;;
11054;SDS011;5580;50.106;8.702;2023-04-24T11:11:35;4.87;;;3.70;;
11054;SDS011;5580;50.106;8.702;2023-04-24T11:14:03;3.50;;;3.17;;
11054;SDS011;5580;50.106;8.702;2023-04-24T11:19:17;3.90;;;2.83;;
11054;SDS011;5580;50.106;8.702;2023-04-24T11:21:54;3.33;;;3.03;;
11054;SDS011;5580;50.106;8.702;2023-04-24T11:34:47;3.80;;;3.40;;
11054;SDS011;5580;50.106;8.702;2023-04-24T11:37:14;4.93;;;3.30;;
11054;SDS011;5580;50.106;8.702;2023-04-24T11:39:40;7.30;;;4.00;;
11054;SDS011;5580;50.106;8.702;2023-04-24T11:42:06;4.93;;;3.73;;
11054;SDS011;5580;50.106;8.702;2023-04-24T11:44:33;3.70;;;3.40;;
11054;SDS011;5580;50.106;8.702;2023-04-24T11:47:02;4.20;;;3.30;;
11054;SDS011;5580;50.106;8.702;2023-04-24T11:49:32;5.80;;;3.60;;
11054;SDS011;5580;50.106;8.702;2023-04-24T11:51:57;3.53;;;3.03;;
11054;SDS011;5580;50.106;8.702;2023-04-24T11:54:25;4.90;;;3.23;;
11054;SDS011;5580;50.106;8.702;2023-04-24T11:56:51;4.80;;;3.43;;
11054;SDS011;5580;50.106;8.702;2023-04-24T11:59:16;5.50;;;3.20;;
11054;SDS011;5580;50.106;8.702;2023-04-24T12:01:45;3.60;;;3.30;;
11054;SDS011;5580;50.106;8.702;2023-04-24T12:04:11;3.50;;;3.20;;
11054;SDS011;5580;50.106;8.702;2023-04-24T12:06:38;3.80;;;3.03;;
11054;SDS011;5580;50.106;8.702;2023-04-24T12:09:03;4.60;;;3.40;;
11054;SDS011;5580;50.106;8.702;2023-04-24T12:11:29;6.57;;;3.20;;
11054;SDS011;5580;50.106;8.702;2023-04-24T12:13:55;3.90;;;2.77;;
11054;SDS011;5580;50.106;8.702;2023-04-24T12:16:21;2.60;;;2.40;;
11054;SDS011;5580;50.106;8.702;2023-04-24T12:18:46;2.10;;;1.90;;
11054;SDS011;5580;50.106;8.702;2023-04-24T12:21:30;3.57;;;2.20;;
11054;SDS011;5580;50.106;8.702;2023-04-24T12:23:56;3.43;;;2.60;;
11054;SDS011;5580;50.106;8.702;2023-04-24T12:26:22;3.40;;;2.80;;
11054;SDS011;5580;50.106;8.702;2023-04-24T12:28:49;4.00;;;2.87;;
11054;SDS011;5580;50.106;8.702;2023-04-24T12:31:15;3.03;;;2.73;;
11054;SDS011;5580;50.106;8.702;2023-04-24T12:33:41;3.23;;;2.90;;
11054;SDS011;5580;50.106;8.702;2023-04-24T12:36:09;3.33;;;3.13;;
11054;SDS011;5580;50.106;8.702;2023-04-24T12:38:37;3.70;;;3.27;;
11054;SDS011;5580;50.106;8.702;2023-04-24T12:41:07;4.90;;;3.43;;
11054;SDS011;5580;50.106;8.702;2023-04-24T12:43:33;4.17;;;3.30;;
11054;SDS011;5580;50.106;8.702;2023-04-24T12:46:00;3.50;;;3.20;;
11054;SDS011;5580;50.106;8.702;2023-04-24T12:48:26;4.00;;;3.60;;
11054;SDS011;5580;50.106;8.702;2023-04-24T12:50:52;3.97;;;3.50;;
11054;SDS011;5580;50.106;8.702;2023-04-24T12:53:18;5.13;;;3.80;;
11054;SDS011;5580;50.106;8.702;2023-04-24T12:55:43;5.73;;;4.00;;
11054;SDS011;5580;50.106;8.702;2023-04-24T12:58:10;7.30;;;4.27;;
11054;SDS011;5580;50.106;8.702;2023-04-24T13:00:35;6.30;;;4.33;;
11054;SDS011;5580;50.106;8.702;2023-04-24T13:03:01;6.13;;;4.47;;
11054;SDS011;5580;50.106;8.702;2023-04-24T13:05:27;5.10;;;4.40;;
11054;SDS011;5580;50.106;8.702;2023-04-24T13:07:53;7.27;;;5.00;;
11054;SDS011;5580;50.106;8.702;2023-04-24T13:10:18;8.37;;;5.00;;
11054;SDS011;5580;50.106;8.702;2023-04-24T13:12:44;8.87;;;5.10;;
11054;SDS011;5580;50.106;8.702;2023-04-24T13:15:11;8.57;;;5.20;;
11054;SDS011;5580;50.106;8.702;2023-04-24T13:17:36;9.60;;;5.10;;
11054;SDS011;5580;50.106;8.702;2023-04-24T13:20:02;7.63;;;4.97;;
11054;SDS011;5580;50.106;8.702;2023-04-24T13:22:28;12.70;;;5.40;;
11054;SDS011;5580;50.106;8.702;2023-04-24T13:24:54;9.20;;;5.43;;
11054;SDS011;5580;50.106;8.702;2023-04-24T13:27:19;7.10;;;5.17;;
11054;SDS011;5580;50.106;8.702;2023-04-24T13:29:45;9.43;;;4.97;;
11054;SDS011;5580;50.106;8.702;2023-04-24T13:32:11;7.87;;;4.83;;
11054;SDS011;5580;50.106;8.702;2023-04-24T13:34:36;8.93;;;5.30;;
11054;SDS011;5580;50.106;8.702;2023-04-24T13:37:03;10.57;;;4.67;;
11054;SDS011;5580;50.106;8.702;2023-04-24T13:39:29;6.67;;;4.50;;
11054;SDS011;5580;50.106;8.702;2023-04-24T13:41:54;6.93;;;4.63;;
11054;SDS011;5580;50.106;8.702;2023-04-24T13:44:21;5.33;;;4.30;;
11054;SDS011;5580;50.106;8.702;2023-04-24T13:46:49;6.67;;;4.03;;
11054;SDS011;5580;50.106;8.702;2023-04-24T13:49:18;5.80;;;4.30;;
11054;SDS011;5580;50.106;8.702;2023-04-24T13:51:43;7.17;;;4.20;;
11054;SDS011;5580;50.106;8.702;2023-04-24T13:54:10;6.43;;;4.40;;
11054;SDS011;5580;50.106;8.702;2023-04-24T13:56:36;6.23;;;4.37;;
11054;SDS011;5580;50.106;8.702;2023-04-24T13:59:02;6.97;;;4.90;;
11054;SDS011;5580;50.106;8.702;2023-04-24T14:01:27;8.80;;;4.90;;
11054;SDS011;5580;50.106;8.702;2023-04-24T14:03:54;7.43;;;4.43;;
11054;SDS011;5580;50.106;8.702;2023-04-24T14:06:21;7.07;;;4.73;;
11054;SDS011;5580;50.106;8.702;2023-04-24T14:08:48;6.10;;;4.53;;
11054;SDS011;5580;50.106;8.702;2023-04-24T14:11:14;9.23;;;4.80;;
11054;SDS011;5580;50.106;8.702;2023-04-24T14:13:42;6.80;;;4.90;;
11054;SDS011;5580;50.106;8.702;2023-04-24T14:16:09;10.00;;;5.13;;
11054;SDS011;5580;50.106;8.702;2023-04-24T14:18:35;7.53;;;5.00;;
11054;SDS011;5580;50.106;8.702;2023-04-24T14:21:01;10.67;;;5.10;;
11054;SDS011;5580;50.106;8.702;2023-04-24T14:23:27;9.97;;;4.97;;
11054;SDS011;5580;50.106;8.702;2023-04-24T14:25:53;6.50;;;4.90;;
11054;SDS011;5580;50.106;8.702;2023-04-24T14:28:19;7.80;;;5.00;;
11054;SDS011;5580;50.106;8.702;2023-04-24T14:30:45;9.17;;;5.20;;
11054;SDS011;5580;50.106;8.702;2023-04-24T14:33:11;10.50;;;4.93;;
11054;SDS011;5580;50.106;8.702;2023-04-24T14:35:37;11.50;;;5.30;;
11054;SDS011;5580;50.106;8.702;2023-04-24T14:38:04;8.00;;;5.13;;
11054;SDS011;5580;50.106;8.702;2023-04-24T14:40:30;7.33;;;5.10;;
11054;SDS011;5580;50.106;8.702;2023-04-24T14:42:57;8.80;;;4.90;;
11054;SDS011;5580;50.106;8.702;2023-04-24T14:45:23;9.10;;;5.47;;
11054;SDS011;5580;50.106;8.702;2023-04-24T14:47:49;10.73;;;5.60;;
11054;SDS011;5580;50.106;8.702;2023-04-24T14:50:14;9.37;;;5.70;;
11054;SDS011;5580;50.106;8.702;2023-04-24T14:52:40;8.90;;;5.40;;
11054;SDS011;5580;50.106;8.702;2023-04-24T14:55:06;7.30;;;5.33;;
11054;SDS011;5580;50.106;8.702;2023-04-24T14:57:32;10.50;;;5.40;;
11054;SDS011;5580;50.106;8.702;2023-04-24T14:59:58;8.77;;;5.27;;
11054;SDS011;5580;50.106;8.702;2023-04-24T15:02:24;7.80;;;5.30;;
11054;SDS011;5580;50.106;8.702;2023-04-24T15:04:50;7.70;;;5.40;;
11054;SDS011;5580;50.106;8.702;2023-04-24T15:07:15;8.23;;;5.50;;
11054;SDS011;5580;50.106;8.702;2023-04-24T15:09:41;10.90;;;5.63;;